Time;durP1;ratioP1;P1;durP2;ratioP2;P2;SDS_P1;SDS_P2;PMS_P1;PMS_P2;Temp;Humidity;BMP_temperature;BMP_pressure;BME280_temperature;BME280_humidity;BME280_pressure;Samples;Min_cycle;Max_cycle;Signal;HPM_P1;HPM_P2
2023/05/15 00:00:28;;;;;;;11.35;9.02;;;15.10;99.90;;;;;;5050997;28;20636;-76
2023/05/15 00:02:56;;;;;;;8.40;7.60;;;15.10;99.90;;;;;;5052197;28;20306;-77
2023/05/15 00:05:25;;;;;;;9.65;8.75;;;15.00;99.90;;;;;;5051159;28;20188;-75
2023/05/15 00:07:51;;;;;;;8.70;7.85;;;15.00;99.90;;;;;;5049495;28;20203;-77
2023/05/15 00:10:18;;;;;;;10.00;8.60;;;14.90;99.90;;;;;;5051125;28;20286;-76
2023/05/15 00:12:45;;;;;;;8.70;7.70;;;14.80;99.90;;;;;;5051448;28;20275;-77
2023/05/15 00:15:12;;;;;;;9.35;8.55;;;14.80;99.90;;;;;;5057432;28;20226;-76
2023/05/15 00:17:39;;;;;;;9.82;8.40;;;14.70;99.90;;;;;;5052468;28;20219;-76
2023/05/15 00:20:09;;;;;;;9.07;8.23;;;14.70;99.90;;;;;;5060986;28;20226;-77
2023/05/15 00:22:36;;;;;;;9.50;8.55;;;14.70;99.90;;;;;;5044079;28;20310;-75
2023/05/15 00:25:03;;;;;;;10.10;9.20;;;14.70;99.90;;;;;;5057427;28;20195;-76
2023/05/15 00:27:30;;;;;;;10.30;8.68;;;14.60;99.90;;;;;;5059474;28;20211;-77
2023/05/15 00:29:57;;;;;;;13.18;9.82;;;14.70;99.90;;;;;;5055837;28;20292;-76
2023/05/15 00:32:24;;;;;;;9.95;9.05;;;14.60;99.90;;;;;;5063366;28;20329;-76
2023/05/15 00:34:51;;;;;;;10.40;9.40;;;14.60;99.90;;;;;;5056028;28;20308;-77
2023/05/15 00:37:19;;;;;;;12.52;8.90;;;14.60;99.90;;;;;;5043099;28;20674;-76
2023/05/15 00:39:46;;;;;;;10.70;8.88;;;14.60;99.90;;;;;;5055905;28;20310;-75
2023/05/15 00:42:15;;;;;;;9.57;8.73;;;14.60;99.90;;;;;;5060272;28;20259;-76
2023/05/15 00:44:44;;;;;;;10.07;9.07;;;14.60;99.90;;;;;;5056244;28;20192;-77
2023/05/15 00:47:12;;;;;;;9.52;8.68;;;14.60;99.90;;;;;;5061817;28;20314;-78
2023/05/15 00:49:40;;;;;;;12.20;10.68;;;14.50;99.90;;;;;;5057830;28;20223;-76
2023/05/15 00:52:07;;;;;;;10.65;9.70;;;14.40;99.90;;;;;;5072424;28;20223;-76
2023/05/15 00:54:35;;;;;;;12.55;9.85;;;14.40;99.90;;;;;;5069356;28;20268;-77
2023/05/15 00:57:05;;;;;;;11.68;10.57;;;14.40;99.90;;;;;;5067273;28;20263;-75
2023/05/15 00:59:33;;;;;;;10.48;9.38;;;14.40;99.90;;;;;;5055749;28;20298;-75
2023/05/15 01:02:00;;;;;;;13.00;9.75;;;14.40;99.90;;;;;;5056085;28;20236;-77
2023/05/15 01:04:27;;;;;;;10.45;9.55;;;14.30;99.90;;;;;;5055886;28;20282;-76
2023/05/15 01:06:54;;;;;;;10.88;9.88;;;14.30;99.90;;;;;;5047900;28;20664;-76
2023/05/15 01:09:23;;;;;;;11.35;10.30;;;14.20;99.90;;;;;;5043804;28;20544;-77
2023/05/15 01:11:54;;;;;;;12.20;9.82;;;14.20;99.90;;;;;;5052346;28;20601;-76
2023/05/15 01:14:21;;;;;;;12.52;11.43;;;14.20;99.90;;;;;;5053769;28;20206;-77
2023/05/15 01:16:48;;;;;;;12.10;10.82;;;14.20;99.90;;;;;;5054762;28;20222;-77
2023/05/15 01:19:15;;;;;;;10.43;9.48;;;14.10;99.90;;;;;;5055101;28;20576;-77
2023/05/15 01:22:26;;;;;;;13.40;12.00;;;14.10;99.90;;;;;;5046477;28;20318;-76
2023/05/15 01:25:31;;;;;;;11.77;10.65;;;14.00;99.90;;;;;;5054723;28;20214;-75
2023/05/15 01:28:05;;;;;;;10.00;9.10;;;14.00;99.90;;;;;;5052940;28;20221;-75
2023/05/15 01:30:34;;;;;;;12.00;10.90;;;14.00;99.90;;;;;;5036179;28;20565;-74
2023/05/15 01:33:06;;;;;;;12.20;10.95;;;14.00;99.90;;;;;;5054356;28;20223;-75
2023/05/15 01:35:38;;;;;;;11.23;10.20;;;13.90;99.90;;;;;;5053923;28;20211;-76
2023/05/15 01:38:27;;;;;;;12.50;11.27;;;13.90;99.90;;;;;;5062082;28;20306;-76
2023/05/15 01:40:59;;;;;;;12.13;10.95;;;13.90;99.90;;;;;;5047942;28;20671;-77
2023/05/15 01:43:30;;;;;;;11.65;10.55;;;13.80;99.90;;;;;;5053442;28;20222;-77
2023/05/15 01:45:58;;;;;;;12.90;11.52;;;13.80;99.90;;;;;;5054214;28;20203;-75
2023/05/15 01:48:28;;;;;;;11.82;10.75;;;13.80;99.90;;;;;;5054323;28;20307;-77
2023/05/15 01:50:59;;;;;;;13.10;11.70;;;13.80;99.90;;;;;;5052942;28;20208;-76
2023/05/15 01:53:27;;;;;;;12.80;10.88;;;13.70;99.90;;;;;;5053271;28;20220;-76
2023/05/15 01:55:54;;;;;;;12.75;11.50;;;13.70;99.90;;;;;;5056059;28;20310;-77
2023/05/15 01:58:23;;;;;;;11.32;10.23;;;13.70;99.90;;;;;;5053526;28;20673;-77
2023/05/15 02:00:52;;;;;;;14.30;13.00;;;13.70;99.90;;;;;;5053202;28;20294;-74
2023/05/15 02:03:20;;;;;;;13.15;11.95;;;13.70;99.90;;;;;;5054489;28;20219;-75
2023/05/15 02:05:48;;;;;;;13.80;11.02;;;13.70;99.90;;;;;;5055975;28;20238;-77
2023/05/15 02:08:15;;;;;;;13.30;11.90;;;13.70;99.90;;;;;;5053877;28;20242;-78
2023/05/15 02:10:43;;;;;;;14.10;12.50;;;13.70;99.90;;;;;;5056860;28;20233;-77
2023/05/15 02:13:12;;;;;;;14.18;12.63;;;13.70;99.90;;;;;;5057503;28;20227;-77
2023/05/15 02:15:39;;;;;;;12.00;10.90;;;13.60;99.90;;;;;;5038556;28;20601;-76
2023/05/15 02:18:07;;;;;;;13.05;11.75;;;13.60;99.90;;;;;;5057847;28;20281;-77
2023/05/15 02:20:34;;;;;;;14.63;13.05;;;13.60;99.90;;;;;;5049468;28;20221;-77
2023/05/15 02:23:02;;;;;;;14.05;12.73;;;13.60;99.90;;;;;;5052141;28;20858;-77
2023/05/15 02:25:37;;;;;;;13.27;11.98;;;13.50;99.90;;;;;;5056500;28;20561;-76
2023/05/15 02:28:09;;;;;;;15.40;13.18;;;13.40;99.90;;;;;;5054986;28;20231;-76
2023/05/15 02:30:43;;;;;;;13.60;12.15;;;13.40;99.90;;;;;;5053647;28;20298;-76
2023/05/15 02:33:23;;;;;;;14.00;12.55;;;13.40;99.90;;;;;;5030142;28;20613;-76
2023/05/15 02:35:56;;;;;;;14.57;13.13;;;13.40;99.90;;;;;;5057037;28;20219;-75
2023/05/15 02:38:30;;;;;;;13.80;12.40;;;13.40;99.90;;;;;;5037862;28;20199;-77
2023/05/15 02:40:59;;;;;;;15.57;12.85;;;13.30;99.90;;;;;;5038965;28;20283;-77
2023/05/15 02:43:27;;;;;;;17.73;12.18;;;13.30;99.90;;;;;;5061864;28;20293;-77
2023/05/15 02:45:56;;;;;;;13.98;12.77;;;13.30;99.90;;;;;;5061565;28;20252;-74
2023/05/15 02:48:25;;;;;;;12.75;11.52;;;13.30;99.90;;;;;;5052275;28;20283;-77
2023/05/15 02:50:53;;;;;;;14.63;13.13;;;13.30;99.90;;;;;;5053196;28;20198;-76
2023/05/15 02:53:20;;;;;;;14.23;12.85;;;13.30;99.90;;;;;;5053649;28;20341;-78
2023/05/15 02:55:47;;;;;;;16.42;14.93;;;13.20;99.90;;;;;;5056794;28;20214;-76
2023/05/15 02:58:14;;;;;;;16.77;15.15;;;13.10;99.90;;;;;;5035517;28;20220;-77
2023/05/15 03:00:41;;;;;;;14.40;13.10;;;13.10;99.90;;;;;;5054180;28;20242;-76
2023/05/15 03:03:09;;;;;;;16.67;14.98;;;13.10;99.90;;;;;;5038082;28;20219;-77
2023/05/15 03:05:37;;;;;;;15.93;14.18;;;13.10;99.90;;;;;;5049248;28;20734;-77
2023/05/15 03:08:05;;;;;;;14.63;13.07;;;13.00;99.90;;;;;;5045404;28;20289;-76
2023/05/15 03:10:32;;;;;;;17.00;15.32;;;13.00;99.90;;;;;;5052276;28;20234;-76
2023/05/15 03:12:59;;;;;;;15.65;14.05;;;13.10;99.90;;;;;;5059060;28;20302;-76
2023/05/15 03:15:26;;;;;;;15.40;13.60;;;13.00;99.90;;;;;;5053154;28;20209;-77
2023/05/15 03:17:53;;;;;;;15.18;13.68;;;13.00;99.90;;;;;;5052521;28;20199;-77
2023/05/15 03:20:19;;;;;;;15.30;13.90;;;13.00;99.90;;;;;;5052063;28;20667;-78
2023/05/15 03:22:48;;;;;;;19.23;15.10;;;13.10;99.90;;;;;;5050572;28;20229;-77
2023/05/15 03:25:15;;;;;;;18.92;16.42;;;13.00;99.90;;;;;;5052592;28;20214;-77
2023/05/15 03:27:42;;;;;;;17.58;14.43;;;13.00;99.90;;;;;;5053510;28;20237;-76
2023/05/15 03:30:10;;;;;;;17.10;15.57;;;13.00;99.90;;;;;;5052659;28;20206;-76
2023/05/15 03:32:37;;;;;;;19.38;17.30;;;13.00;99.90;;;;;;5052638;28;20219;-77
2023/05/15 03:35:04;;;;;;;18.23;16.48;;;13.10;99.90;;;;;;5053184;28;20285;-76
2023/05/15 03:37:31;;;;;;;18.55;16.73;;;13.10;99.90;;;;;;5052147;28;20232;-76
2023/05/15 03:39:59;;;;;;;18.17;13.90;;;13.10;99.90;;;;;;5052469;28;20289;-77
2023/05/15 03:42:26;;;;;;;17.95;15.05;;;13.10;99.90;;;;;;5049699;28;20721;-75
2023/05/15 03:44:54;;;;;;;16.02;14.43;;;13.10;99.90;;;;;;5048821;28;20684;-75
2023/05/15 03:47:22;;;;;;;18.60;15.68;;;13.20;99.90;;;;;;5052070;28;20206;-75
2023/05/15 03:49:48;;;;;;;19.63;16.70;;;13.20;99.90;;;;;;5052423;28;20708;-75
2023/05/15 03:52:15;;;;;;;18.73;16.80;;;13.20;99.90;;;;;;5058280;28;20222;-77
2023/05/15 03:54:42;;;;;;;18.63;16.63;;;13.30;99.90;;;;;;5054862;28;20658;-77
2023/05/15 03:57:11;;;;;;;19.90;17.77;;;13.30;99.90;;;;;;5052429;28;20559;-76
2023/05/15 03:59:37;;;;;;;19.13;17.38;;;13.30;99.90;;;;;;5054468;28;20210;-78
2023/05/15 04:02:05;;;;;;;20.52;18.10;;;13.40;99.90;;;;;;5056828;28;20226;-77
2023/05/15 04:04:32;;;;;;;20.33;18.13;;;13.40;99.90;;;;;;5056495;28;20203;-77
2023/05/15 04:06:59;;;;;;;19.63;17.80;;;13.40;99.90;;;;;;5055539;28;20543;-77
2023/05/15 04:09:26;;;;;;;26.30;19.33;;;13.40;99.90;;;;;;5056104;28;20196;-78
2023/05/15 04:11:53;;;;;;;28.65;22.42;;;13.40;99.90;;;;;;5055326;28;20227;-77
2023/05/15 04:14:21;;;;;;;26.13;21.83;;;13.50;99.90;;;;;;5043049;28;20283;-78
2023/05/15 04:16:48;;;;;;;25.65;22.90;;;13.50;99.90;;;;;;5059383;28;20665;-77
2023/05/15 04:19:16;;;;;;;26.38;23.77;;;13.60;99.90;;;;;;5059969;28;20293;-76
2023/05/15 04:21:42;;;;;;;29.58;26.58;;;13.70;99.90;;;;;;5055706;28;20223;-76
2023/05/15 04:24:09;;;;;;;30.52;27.23;;;13.80;99.90;;;;;;5056209;28;20249;-76
2023/05/15 04:26:36;;;;;;;31.02;27.73;;;13.80;99.90;;;;;;5056306;28;20279;-78
2023/05/15 04:29:03;;;;;;;34.83;30.33;;;14.00;99.90;;;;;;5056944;28;20195;-76
2023/05/15 04:31:32;;;;;;;34.92;28.42;;;14.10;99.90;;;;;;5057070;28;20231;-75
2023/05/15 04:33:58;;;;;;;38.67;29.33;;;14.20;99.90;;;;;;5066598;28;20195;-77
2023/05/15 04:36:25;;;;;;;33.42;26.42;;;14.60;99.90;;;;;;5064059;28;20215;-75
2023/05/15 04:38:52;;;;;;;34.95;27.45;;;14.90;99.90;;;;;;5053880;28;20206;-77
2023/05/15 04:41:19;;;;;;;29.10;25.90;;;15.20;99.90;;;;;;5052692;28;20287;-76
2023/05/15 04:43:46;;;;;;;30.13;26.20;;;15.60;99.90;;;;;;5055619;28;20220;-77
2023/05/15 04:46:13;;;;;;;37.07;26.07;;;16.10;99.90;;;;;;5055125;28;20567;-76
2023/05/15 04:48:41;;;;;;;32.67;28.23;;;16.60;99.90;;;;;;5055371;28;20471;-74
2023/05/15 04:51:08;;;;;;;31.43;27.63;;;17.10;99.90;;;;;;5054722;28;20452;-77
2023/05/15 04:53:35;;;;;;;28.70;25.70;;;17.70;99.90;;;;;;5059213;28;20450;-76
2023/05/15 04:56:02;;;;;;;32.50;26.47;;;18.40;99.90;;;;;;5055926;28;20496;-75
2023/05/15 04:58:29;;;;;;;33.13;27.53;;;18.80;99.90;;;;;;5054651;28;20566;-75
2023/05/15 05:00:57;;;;;;;35.73;26.20;;;18.90;99.90;;;;;;5056294;28;20474;-76
2023/05/15 05:03:24;;;;;;;31.27;27.77;;;19.20;99.90;;;;;;5060353;28;20547;-77
2023/05/15 05:05:54;;;;;;;29.20;26.27;;;19.50;99.90;;;;;;5054898;28;20440;-77
2023/05/15 05:08:21;;;;;;;32.43;28.93;;;19.80;99.90;;;;;;5055553;28;20456;-79
2023/05/15 05:10:48;;;;;;;29.43;26.30;;;20.10;99.90;;;;;;5053292;28;20880;-75
2023/05/15 05:13:15;;;;;;;32.57;29.17;;;20.20;99.90;;;;;;5055625;28;20816;-75
2023/05/15 05:15:42;;;;;;;30.60;27.47;;;20.30;99.90;;;;;;5054645;28;20940;-76
2023/05/15 05:18:08;;;;;;;31.13;28.23;;;20.50;99.90;;;;;;5055058;28;20476;-75
2023/05/15 05:20:36;;;;;;;31.03;27.83;;;21.10;99.90;;;;;;5053465;28;20897;-76
2023/05/15 05:23:04;;;;;;;32.07;28.40;;;21.70;99.90;;;;;;5054997;28;20528;-73
2023/05/15 05:25:31;;;;;;;32.50;29.17;;;22.20;99.90;;;;;;5055365;28;20454;-71
2023/05/15 05:27:58;;;;;;;34.30;30.80;;;22.50;98.60;;;;;;5056138;28;20517;-78
2023/05/15 05:30:25;;;;;;;32.87;29.10;;;22.50;98.70;;;;;;5055755;28;20455;-77
2023/05/15 05:32:51;;;;;;;29.33;26.40;;;22.70;98.10;;;;;;5059580;28;20901;-76
2023/05/15 05:35:18;;;;;;;29.30;26.50;;;23.30;96.70;;;;;;5054078;28;20564;-76
2023/05/15 05:37:45;;;;;;;34.03;26.90;;;23.80;94.90;;;;;;5055451;28;20487;-78
2023/05/15 05:40:16;;;;;;;30.33;27.37;;;23.90;94.20;;;;;;5048179;28;20799;-76
2023/05/15 05:42:43;;;;;;;27.47;24.80;;;24.20;93.40;;;;;;5054481;28;20554;-76
2023/05/15 05:45:11;;;;;;;31.97;28.77;;;24.30;93.10;;;;;;5055868;28;20461;-77
2023/05/15 05:47:38;;;;;;;30.93;27.90;;;24.50;92.30;;;;;;5055746;28;20998;-78
2023/05/15 05:50:08;;;;;;;30.40;27.30;;;24.60;91.90;;;;;;5056391;28;20771;-76
2023/05/15 05:52:36;;;;;;;27.30;24.60;;;25.10;91.40;;;;;;5059948;28;20486;-75
2023/05/15 05:55:05;;;;;;;31.80;28.67;;;25.80;90.70;;;;;;5049219;28;20522;-75
2023/05/15 05:57:33;;;;;;;28.30;25.40;;;26.20;89.10;;;;;;5055983;28;20488;-76
2023/05/15 06:00:03;;;;;;;46.60;31.30;;;26.70;87.90;;;;;;5049511;28;20450;-76
2023/05/15 06:02:32;;;;;;;31.57;28.43;;;26.90;86.20;;;;;;5053413;28;20551;-76
2023/05/15 06:05:00;;;;;;;35.57;30.10;;;27.10;85.30;;;;;;5050725;28;20438;-75
2023/05/15 06:07:27;;;;;;;32.67;29.07;;;27.00;84.40;;;;;;5052830;28;20438;-75
2023/05/15 06:09:56;;;;;;;32.97;29.57;;;27.20;84.20;;;;;;5048614;28;20525;-76
2023/05/15 06:12:23;;;;;;;26.60;24.00;;;27.50;83.40;;;;;;5055979;28;20828;-76
2023/05/15 06:14:52;;;;;;;34.37;29.33;;;27.90;82.60;;;;;;5044845;28;20504;-76
2023/05/15 06:17:19;;;;;;;40.23;35.37;;;28.00;80.80;;;;;;5048351;28;20498;-75
2023/05/15 06:19:46;;;;;;;38.93;31.20;;;28.40;80.60;;;;;;5054851;28;20450;-75
2023/05/15 06:22:13;;;;;;;31.60;26.00;;;28.60;79.30;;;;;;5055991;28;20517;-72
2023/05/15 06:24:41;;;;;;;31.20;27.03;;;28.90;78.90;;;;;;5057533;28;20452;-76
2023/05/15 06:27:07;;;;;;;30.97;27.50;;;29.20;77.90;;;;;;5055358;28;20925;-77
2023/05/15 06:29:35;;;;;;;26.13;23.60;;;29.40;77.00;;;;;;5055681;28;20545;-76
2023/05/15 06:32:09;;;;;;;23.50;21.27;;;29.30;75.90;;;;;;5053846;28;20486;-74
2023/05/15 06:34:36;;;;;;;24.03;21.97;;;29.50;75.70;;;;;;5054583;28;20456;-76
2023/05/15 06:37:04;;;;;;;28.17;25.60;;;29.40;75.50;;;;;;5054506;28;21051;-75
2023/05/15 06:39:31;;;;;;;30.27;27.00;;;29.40;75.20;;;;;;5055864;28;20978;-76
2023/05/15 06:42:00;;;;;;;28.97;26.20;;;29.30;75.20;;;;;;5056458;28;20477;-75
2023/05/15 06:44:27;;;;;;;25.40;23.10;;;28.40;76.50;;;;;;5051059;28;20442;-73
2023/05/15 06:46:54;;;;;;;26.43;23.93;;;28.10;78.20;;;;;;5053752;28;20496;-75
2023/05/15 06:49:22;;;;;;;27.83;25.30;;;28.20;78.40;;;;;;5053297;28;20537;-73
2023/05/15 06:51:49;;;;;;;29.03;23.53;;;28.40;78.50;;;;;;5052969;28;20470;-74
2023/05/15 06:54:16;;;;;;;26.80;24.40;;;28.90;77.50;;;;;;5056854;28;20512;-73
2023/05/15 06:56:44;;;;;;;29.00;26.20;;;29.10;76.40;;;;;;5051283;28;21026;-74
2023/05/15 06:59:11;;;;;;;27.00;24.40;;;28.80;76.30;;;;;;5053568;28;20819;-74
2023/05/15 07:01:39;;;;;;;29.10;25.93;;;28.70;77.60;;;;;;5051583;28;20461;-74
2023/05/15 07:04:06;;;;;;;26.73;24.13;;;28.80;76.60;;;;;;5047064;28;20454;-76
2023/05/15 07:06:35;;;;;;;26.80;24.33;;;28.70;77.20;;;;;;5053387;28;20446;-76
2023/05/15 07:09:02;;;;;;;26.30;23.60;;;28.80;77.10;;;;;;5042946;28;20851;-75
2023/05/15 07:11:29;;;;;;;26.80;23.83;;;28.90;77.00;;;;;;5052639;28;20505;-75
2023/05/15 07:13:56;;;;;;;25.10;22.80;;;29.30;75.90;;;;;;5053040;28;20524;-77
2023/05/15 07:16:23;;;;;;;27.53;24.63;;;29.10;76.10;;;;;;5055421;28;20932;-76
2023/05/15 07:18:50;;;;;;;26.40;23.77;;;29.00;75.90;;;;;;5054721;28;20498;-74
2023/05/15 07:21:17;;;;;;;24.63;22.20;;;29.30;75.00;;;;;;5057216;28;20464;-75
2023/05/15 07:23:45;;;;;;;26.10;23.30;;;29.40;74.50;;;;;;5053420;28;20485;-74
2023/05/15 07:26:14;;;;;;;23.07;21.03;;;29.40;73.90;;;;;;5052698;28;20485;-76
2023/05/15 07:28:41;;;;;;;24.70;22.50;;;29.40;73.80;;;;;;5052424;28;20497;-74
2023/05/15 07:31:08;;;;;;;24.77;22.57;;;29.60;74.60;;;;;;5053852;28;21027;-76
2023/05/15 07:33:35;;;;;;;24.33;22.07;;;29.80;74.00;;;;;;5058304;28;20456;-76
2023/05/15 07:36:02;;;;;;;26.37;23.77;;;30.10;74.10;;;;;;5054373;28;20882;-74
2023/05/15 07:38:29;;;;;;;27.57;24.97;;;29.90;73.10;;;;;;5052780;28;20512;-77
2023/05/15 07:40:57;;;;;;;26.37;23.77;;;29.50;73.50;;;;;;5054740;28;20446;-76
2023/05/15 07:43:24;;;;;;;25.00;22.60;;;29.20;73.80;;;;;;5053396;28;20470;-74
2023/05/15 07:45:51;;;;;;;24.30;22.00;;;29.10;74.20;;;;;;5052261;28;20450;-73
2023/05/15 07:48:19;;;;;;;25.80;23.20;;;29.60;74.00;;;;;;5050898;28;20442;-76
2023/05/15 07:50:49;;;;;;;25.20;22.70;;;30.00;72.70;;;;;;5052192;28;20541;-74
2023/05/15 07:53:18;;;;;;;21.83;19.63;;;29.50;72.40;;;;;;5052525;28;20469;-74
2023/05/15 07:55:46;;;;;;;22.50;20.30;;;29.30;72.70;;;;;;5052429;28;20536;-74
2023/05/15 07:58:16;;;;;;;26.30;23.47;;;29.50;72.30;;;;;;5054685;28;20466;-74
2023/05/15 08:00:43;;;;;;;26.20;23.53;;;29.20;72.90;;;;;;5052084;28;20488;-72
2023/05/15 08:03:10;;;;;;;25.47;21.33;;;28.70;73.70;;;;;;5057286;28;21011;-74
2023/05/15 08:05:37;;;;;;;23.27;21.03;;;28.80;74.70;;;;;;5044590;28;20450;-73
2023/05/15 08:08:05;;;;;;;23.30;20.90;;;29.00;74.30;;;;;;5052812;28;20533;-73
2023/05/15 08:10:32;;;;;;;24.63;21.97;;;29.10;73.40;;;;;;5050575;28;20863;-72
2023/05/15 08:12:59;;;;;;;23.23;20.93;;;29.20;73.70;;;;;;5059076;28;20450;-73
2023/05/15 08:15:28;;;;;;;23.13;20.63;;;29.10;74.00;;;;;;5047346;28;20449;-73
2023/05/15 08:17:56;;;;;;;27.93;22.63;;;29.30;73.50;;;;;;5045464;28;20610;-72
2023/05/15 08:20:23;;;;;;;22.90;20.50;;;29.10;73.20;;;;;;5054999;28;20443;-74
2023/05/15 08:22:50;;;;;;;23.47;21.20;;;29.20;74.30;;;;;;5050244;28;20854;-72
2023/05/15 08:25:17;;;;;;;22.80;20.60;;;29.50;73.70;;;;;;5050641;28;20477;-72
2023/05/15 08:27:44;;;;;;;21.60;19.50;;;29.90;71.40;;;;;;5055029;28;20537;-71
2023/05/15 08:30:12;;;;;;;23.23;20.23;;;29.80;71.80;;;;;;5051987;28;20452;-72
2023/05/15 08:32:42;;;;;;;21.57;19.37;;;29.80;71.50;;;;;;5051291;28;20796;-73
2023/05/15 08:35:09;;;;;;;19.40;17.40;;;30.00;71.30;;;;;;5051905;28;20489;-73
2023/05/15 08:37:36;;;;;;;20.70;18.17;;;30.20;71.10;;;;;;5055921;28;20963;-74
2023/05/15 08:40:06;;;;;;;16.67;15.10;;;30.60;69.80;;;;;;5050101;28;20445;-74
2023/05/15 08:42:40;;;;;;;21.10;19.00;;;30.60;69.70;;;;;;5050060;28;20992;-74
2023/05/15 08:45:08;;;;;;;21.10;19.00;;;31.50;68.80;;;;;;5051368;28;20486;-72
2023/05/15 08:47:41;;;;;;;26.93;18.33;;;31.70;67.10;;;;;;5058421;28;20442;-73
2023/05/15 08:50:11;;;;;;;18.90;17.00;;;31.70;65.90;;;;;;5051321;28;20441;-74
2023/05/15 08:52:41;;;;;;;17.60;15.90;;;31.60;66.50;;;;;;5052923;28;20476;-73
2023/05/15 08:55:09;;;;;;;18.63;16.00;;;32.00;65.70;;;;;;5056342;28;20446;-72
2023/05/15 08:57:37;;;;;;;15.97;14.37;;;31.90;65.70;;;;;;5048245;28;20469;-72
2023/05/15 09:00:07;;;;;;;15.07;13.50;;;32.10;65.40;;;;;;5054352;28;20497;-74
2023/05/15 09:02:34;;;;;;;16.33;14.73;;;32.60;64.40;;;;;;5054615;28;20497;-73
2023/05/15 09:05:03;;;;;;;15.40;13.90;;;32.80;63.30;;;;;;5056652;28;20460;-72
2023/05/15 09:07:30;;;;;;;15.80;14.20;;;32.80;62.60;;;;;;5055015;28;20525;-72
2023/05/15 09:09:57;;;;;;;14.63;13.43;;;32.70;62.50;;;;;;5053709;28;20564;-74
2023/05/15 09:12:25;;;;;;;13.17;12.00;;;32.50;63.10;;;;;;5052126;28;20478;-74
2023/05/15 09:15:10;;;;;;;15.30;13.90;;;32.40;63.30;;;;;;5055331;28;20442;-72
2023/05/15 09:17:36;;;;;;;14.33;12.90;;;32.60;63.10;;;;;;5055606;28;20468;-73
2023/05/15 09:20:07;;;;;;;13.37;11.97;;;32.40;63.80;;;;;;5053392;28;20537;-74
2023/05/15 09:22:35;;;;;;;15.00;13.37;;;32.20;62.60;;;;;;5061134;28;20572;-74
2023/05/15 09:25:03;;;;;;;14.87;13.43;;;31.70;63.20;;;;;;5043462;28;20469;-72
2023/05/15 09:27:30;;;;;;;14.67;13.27;;;31.40;63.60;;;;;;5055671;28;20809;-74
2023/05/15 09:30:09;;;;;;;14.90;13.07;;;30.90;64.60;;;;;;5060905;28;20460;-74
2023/05/15 09:32:37;;;;;;;14.43;13.00;;;30.20;66.50;;;;;;5053940;28;20541;-73
2023/05/15 09:35:29;;;;;;;17.83;16.00;;;29.90;67.30;;;;;;5051838;28;20474;-74
2023/05/15 09:38:00;;;;;;;15.97;14.37;;;29.30;69.80;;;;;;5054197;28;20486;-73
2023/05/15 09:40:31;;;;;;;15.00;12.87;;;29.30;69.40;;;;;;5053523;28;20442;-73
2023/05/15 09:43:00;;;;;;;14.47;12.87;;;29.70;69.10;;;;;;5053481;28;21019;-73
2023/05/15 09:45:28;;;;;;;17.53;15.97;;;29.90;68.60;;;;;;5054273;28;20745;-74
2023/05/15 09:47:55;;;;;;;15.37;12.83;;;29.40;68.80;;;;;;5053763;28;20950;-74
2023/05/15 09:50:31;;;;;;;19.30;14.50;;;29.20;68.50;;;;;;5054006;28;20488;-73
2023/05/15 09:52:59;;;;;;;18.23;15.43;;;29.00;69.90;;;;;;5053082;28;20465;-74
2023/05/15 09:55:27;;;;;;;18.00;14.43;;;29.00;69.80;;;;;;5053143;28;20797;-72
2023/05/15 09:58:08;;;;;;;15.60;14.00;;;29.00;70.30;;;;;;5054533;28;20493;-73
2023/05/15 10:00:38;;;;;;;14.63;13.17;;;29.10;70.10;;;;;;5052831;28;20434;-72
2023/05/15 10:03:06;;;;;;;17.20;15.50;;;29.00;70.90;;;;;;5061077;28;20470;-74
2023/05/15 10:05:36;;;;;;;14.80;13.40;;;28.60;71.90;;;;;;5040280;28;20451;-72
2023/05/15 10:08:03;;;;;;;16.40;14.23;;;28.70;72.70;;;;;;5052186;28;20521;-72
2023/05/15 10:10:32;;;;;;;15.07;13.70;;;29.00;71.90;;;;;;5052000;28;20537;-73
2023/05/15 10:13:02;;;;;;;17.03;15.50;;;29.50;71.80;;;;;;5057379;28;20470;-72
2023/05/15 10:15:29;;;;;;;19.20;17.17;;;29.50;70.50;;;;;;5054314;28;20450;-74
2023/05/15 10:17:56;;;;;;;18.87;16.87;;;29.60;71.20;;;;;;5038578;28;20484;-73
2023/05/15 10:20:25;;;;;;;19.10;17.23;;;29.10;71.90;;;;;;5052229;28;20462;-73
2023/05/15 10:22:55;;;;;;;18.67;16.90;;;29.00;72.50;;;;;;5056166;28;20509;-75
2023/05/15 10:25:33;;;;;;;19.27;17.53;;;28.90;73.60;;;;;;5059118;28;20442;-75
2023/05/15 10:28:00;;;;;;;19.17;17.17;;;28.50;73.70;;;;;;5045694;28;20525;-73
2023/05/15 10:30:28;;;;;;;19.07;16.87;;;28.20;74.30;;;;;;5052386;28;20925;-74
2023/05/15 10:32:56;;;;;;;30.20;19.60;;;27.90;74.40;;;;;;5053322;28;20549;-74
2023/05/15 10:35:23;;;;;;;20.97;18.97;;;27.40;75.60;;;;;;5053305;28;20528;-73
2023/05/15 10:37:50;;;;;;;21.93;18.70;;;26.70;77.20;;;;;;5056424;28;20474;-75
2023/05/15 10:40:20;;;;;;;22.17;19.83;;;26.30;78.30;;;;;;5053170;28;20458;-73
2023/05/15 10:42:47;;;;;;;20.53;18.63;;;26.00;78.60;;;;;;5049166;28;20949;-74
2023/05/15 10:45:15;;;;;;;21.20;18.10;;;26.00;79.80;;;;;;5050894;28;20449;-74
2023/05/15 10:47:43;;;;;;;22.13;19.80;;;25.60;80.00;;;;;;5052772;28;20450;-73
2023/05/15 10:50:12;;;;;;;18.57;16.60;;;25.30;80.60;;;;;;5052560;28;20441;-73
2023/05/15 10:52:40;;;;;;;23.03;18.47;;;25.30;81.50;;;;;;5052205;28;20462;-74
2023/05/15 10:55:08;;;;;;;20.20;15.80;;;25.30;79.50;;;;;;5053308;28;20473;-73
2023/05/15 10:57:37;;;;;;;16.13;14.10;;;25.20;80.30;;;;;;5052580;28;20445;-74
2023/05/15 11:00:25;;;;;;;16.37;14.63;;;25.10;79.00;;;;;;5052984;28;20492;-73
2023/05/15 11:02:55;;;;;;;15.97;14.27;;;24.90;78.20;;;;;;5047799;28;20523;-74
2023/05/15 11:05:23;;;;;;;15.03;12.13;;;24.70;79.10;;;;;;5043786;28;20456;-75
2023/05/15 11:08:26;;;;;;;15.23;12.67;;;24.50;79.30;;;;;;5052348;28;20464;-75
2023/05/15 11:10:53;;;;;;;11.70;10.53;;;24.60;78.50;;;;;;4992320;28;20471;-74
2023/05/15 11:13:21;;;;;;;13.60;12.30;;;24.70;78.30;;;;;;4995261;28;20511;-73
2023/05/15 11:15:49;;;;;;;12.23;11.10;;;24.80;78.30;;;;;;5009399;28;20485;-75
2023/05/15 11:18:16;;;;;;;13.40;12.00;;;24.70;77.90;;;;;;5052579;28;20479;-73
2023/05/15 11:21:08;;;;;;;16.20;11.97;;;24.70;78.20;;;;;;5049342;28;20477;-74
2023/05/15 11:23:39;;;;;;;12.90;11.40;;;24.60;78.10;;;;;;5052222;28;20795;-74
2023/05/15 11:26:06;;;;;;;14.93;10.67;;;24.40;77.90;;;;;;5056218;28;20449;-72
2023/05/15 11:28:42;;;;;;;14.97;12.53;;;24.40;77.10;;;;;;5052787;28;20443;-73
2023/05/15 11:31:09;;;;;;;12.53;11.33;;;24.60;77.00;;;;;;5054190;28;20452;-73
2023/05/15 11:33:39;;;;;;;13.03;11.53;;;24.60;76.80;;;;;;5051923;28;20507;-72
2023/05/15 11:36:06;;;;;;;15.93;13.33;;;24.40;78.00;;;;;;5046267;28;20466;-74
2023/05/15 11:38:39;;;;;;;15.10;11.93;;;24.30;78.40;;;;;;5034186;28;20992;-74
2023/05/15 11:41:18;;;;;;;12.97;9.40;;;24.10;78.20;;;;;;5055276;28;20789;-73
2023/05/15 11:43:46;;;;;;;11.00;8.90;;;23.90;77.00;;;;;;5052574;28;20508;-74
2023/05/15 11:46:13;;;;;;;9.83;8.60;;;23.70;76.70;;;;;;5049692;28;20450;-72
2023/05/15 11:48:41;;;;;;;11.20;8.53;;;23.50;75.50;;;;;;5059601;28;20438;-74
2023/05/15 11:51:16;;;;;;;9.50;8.27;;;23.50;76.40;;;;;;5047950;28;20504;-74
2023/05/15 11:53:45;;;;;;;11.03;9.23;;;23.60;76.80;;;;;;5057324;28;20509;-74
2023/05/15 11:56:18;;;;;;;16.67;10.67;;;23.80;77.30;;;;;;5058039;28;20434;-73
2023/05/15 11:58:47;;;;;;;7.67;6.90;;;23.70;77.10;;;;;;5050736;28;20494;-74
2023/05/15 12:01:15;;;;;;;9.50;8.40;;;23.70;76.00;;;;;;5052035;28;20446;-73
2023/05/15 12:03:42;;;;;;;11.10;7.40;;;23.60;76.20;;;;;;5050466;28;20476;-73
2023/05/15 12:06:10;;;;;;;8.40;7.43;;;23.40;75.30;;;;;;5055514;28;20447;-74
2023/05/15 12:08:38;;;;;;;9.23;7.33;;;23.30;76.10;;;;;;5055080;28;20528;-74
2023/05/15 12:11:06;;;;;;;10.70;7.50;;;23.30;78.10;;;;;;5049868;28;20488;-74
2023/05/15 12:13:34;;;;;;;8.77;7.87;;;23.30;77.00;;;;;;5052702;28;20442;-73
2023/05/15 12:16:02;;;;;;;10.70;7.83;;;23.30;76.80;;;;;;5047779;28;20533;-73
2023/05/15 12:18:30;;;;;;;9.10;7.10;;;23.30;76.60;;;;;;5051920;28;20568;-74
2023/05/15 12:20:57;;;;;;;9.57;8.60;;;23.40;76.50;;;;;;5055132;28;20796;-74
2023/05/15 12:23:26;;;;;;;14.67;10.07;;;23.50;77.30;;;;;;5055269;28;20461;-73
2023/05/15 12:25:57;;;;;;;11.77;10.67;;;23.50;78.00;;;;;;5055562;28;20441;-75
2023/05/15 12:28:26;;;;;;;8.77;7.87;;;23.50;78.10;;;;;;5057382;28;20453;-75
2023/05/15 12:30:54;;;;;;;11.40;8.80;;;23.50;77.80;;;;;;5057149;28;20507;-74
2023/05/15 12:33:22;;;;;;;12.57;9.60;;;23.50;77.30;;;;;;5058696;28;20557;-72
2023/05/15 12:35:53;;;;;;;16.37;11.97;;;23.30;78.20;;;;;;5053559;28;20522;-75